KGLR/GLR METAR and TAF weather

Enter ICAO airport designator
Station Type Date Time Source
KGLR METAR 2020/12/06 01:41 UTC NOAA

KGLR 060141Z AUTO 00000KT 10SM BKN016 M04/M08 A3012 RMK AO2 T10391078


Station Type Date Time Source
KGLR Decoded METAR 2020/12/06 01:41 UTC NOAA

GAYLORD REGIONAL AIRPORT, MI, United States (KGLR) 45-01N 84-41W 407M
Dec 05, 2020 - 08:41 PM EST / 2020.12.06 0141 UTC
Wind: Calm:0
Visibility: 10 mile(s):0
Sky conditions: mostly cloudy
Temperature: 25.0 F (-3.9 C)
Dew Point: 18.0 F (-7.8 C)
Relative Humidity: 74%
Pressure (altimeter): 30.12 in. Hg (1019 hPa)
ob: KGLR 060141Z AUTO 00000KT 10SM BKN016 M04/M08 A3012 RMK AO2 T10391078
cycle: 1

Station Type Date Time Source
KGLR TAF UTC NOAA

Error!

Example: see airport list